Lumber Bridge, North Carolina
Current Conditions -  °F | °C
As of 8:53 AM on Monday 24 Nov 2014 (Local Time) from KFAY Reporting Station
Haze Haze  
Wind Chill: 65°   Ceiling: 300
Heat Index: 65°   Visibility: 4mi
Dew Point: 64°   Wind: 5mph
Humidity: 97%   Direction: 180°S
Pressure: 29.85"   Gusts: NA
Location:  34.89°N, 79.07°W
Report Text: KFAY 241353Z 18004KT 4SM BR OVC003 18/18 A2985 RMK AO2 CIG 002V007 SLP103 T01830178
Loading
Personal Weather Stations






























Interactive Weather Map New forecast layout! Learn more

10-Day Weather Forecast

Advertisements
Track Severe Weather on mobile